Disclaimer

Please do not use the information listed here in-flight or in-navigation, as they are not provided to us by the airports but are provided by volunteers, so they might be outdated.

Search


Regions


Airport information page

Radio informations:
Melbourne Center - 122.1 MHz
Common traffic adv. frequency (CTAF) - 126.7 MHz

Airport informations:
Latitude: 24° 52' 50.00" S
Longitude: 113° 40' 20.00" E
Elevation: 13 feet - 4 meters
Operating hours: N/A
Operating agency: Civil government, landing fees and diplomatic clearance may be required
Timezone: UTC+8
Fuel: Jet A1, without icing nhibitor.

100/130 MIL Spec, low lead, aviation gasoline (BLUE)

Runway information:
04/22 - 5509 x 98 feet< - >1679 x 30 meters
18/36 - 3740 x 98 feet< - >1140 x 30 meters

Recent METARs:
YCAR 141600Z AUTO 31005KT 9999 // NCD 21/18 Q1011
YCAR 141600Z AUTO 31005KT 9999 // NCD 21/18 Q1011
YCAR 141700Z AUTO 25005KT 9999 // NCD 22/20 Q1011

Airport on the map: